Highland Heights, Ohio
Current Conditions -  °F | °C
As of 8:45 AM on Friday 19 Dec 2014 (Local Time) from KCGF Reporting Station
Overcast Overcast  
Wind Chill: -4°   Ceiling: 2500
Heat Index:   Visibility: 10mi
Dew Point: -4°   Wind: 9mph
Humidity: 75%   Direction: 320°NW
Pressure: 30.23"   Gusts: NA
Location:  41.5545°N, 81.4746°W
Report Text: KCGF 191345Z 32008KT 10SM OVC025 00/M04 A3023
Loading
Personal Weather Stations






























Interactive Weather Map New forecast layout! Learn more

10-Day Weather Forecast

Advertisements
Track Severe Weather on mobile